Accueil
METAR-TAF:

METAR-TAF

Aéroports :

Aéroport de Caen - Carpiquet

Caen, France

latitude: 49-11N, longitude: 000-27W, altitude: 78 m

Observation

Le bulletin a été fait il y a 12 minutes, à 05:30 UTC
Vent 10 kt de ouest
Température 9°C
Humidité 87%
Pression 1013 hPa
Visibilité 10 km ou plus
pas de nuages en-dessous de 1500 mètres et pas de cumulonimbus.

METAR: LFRK 280530Z AUTO 28010KT CAVOK 09/07 Q1013 NOSIG

Heure: 07:42 (05:42 UTC)

Prévision

Le bulletin a été fait il y a 42 minutes, à 05:00 UTC
Prévision valable du 28 à 06 UTC au 28 à 15 UTC
Vent 10 kt de ouest/nord-ouest
Visibilité 10 km ou plus
pas de nuages en-dessous de 1500 mètres et pas de cumulonimbus.
Probabilité 30% :
Temporairement
du 28 à 14 UTC au 28 à 15 UTC
Nuages fragmentés à une hauteur de 1400 ft
pluie

TAF: LFRK 280500Z 2806/2815 30010KT CAVOK PROB30 TEMPO 2814/2815 RA BKN014

Observations et prévisions météorologiques de plus de 4000 aéroports (messages METAR et TAF).

Les stations disponibles sont représentées par des disques jaunes et rouges sur la carte.

Passer la souris dessus pour voir le nom de la station.

Cliquer dessus pour voir les observations et prévisions météorologiques.

Pour changer de carte: cliquez sur les boutons verts avec une croix noire pour zoomer, sur le bouton vert avec un tiret pour effectuer un zoom arrière, ou sur les flèches vertes pour les cartes adjacentes.


METAR-TAF: